sensor_id;sensor_type;location;lat;lon;timestamp;temperature;humidity
15834;DHT22;8017;50.812;4.934;2023-04-03T00:02:48;3.00;99.90
15834;DHT22;8017;50.812;4.934;2023-04-03T00:05:50;3.00;99.90
15834;DHT22;8017;50.812;4.934;2023-04-03T00:08:52;3.00;99.90
15834;DHT22;8017;50.812;4.934;2023-04-03T00:11:55;2.90;99.90
15834;DHT22;8017;50.812;4.934;2023-04-03T00:14:57;2.90;99.90
15834;DHT22;8017;50.812;4.934;2023-04-03T00:17:59;2.90;99.90
15834;DHT22;8017;50.812;4.934;2023-04-03T00:21:01;2.90;99.90
15834;DHT22;8017;50.812;4.934;2023-04-03T00:24:03;2.80;99.90
15834;DHT22;8017;50.812;4.934;2023-04-03T00:27:07;2.80;99.90
15834;DHT22;8017;50.812;4.934;2023-04-03T00:30:13;2.80;99.90
15834;DHT22;8017;50.812;4.934;2023-04-03T00:33:15;2.80;99.90
15834;DHT22;8017;50.812;4.934;2023-04-03T00:36:17;2.80;99.90
15834;DHT22;8017;50.812;4.934;2023-04-03T00:39:19;2.70;99.90
15834;DHT22;8017;50.812;4.934;2023-04-03T00:42:23;2.70;99.90
15834;DHT22;8017;50.812;4.934;2023-04-03T00:45:33;2.70;99.90
15834;DHT22;8017;50.812;4.934;2023-04-03T00:48:38;2.60;99.90
15834;DHT22;8017;50.812;4.934;2023-04-03T00:51:41;2.60;99.90
15834;DHT22;8017;50.812;4.934;2023-04-03T00:54:44;2.50;99.90
15834;DHT22;8017;50.812;4.934;2023-04-03T00:57:48;2.50;99.90
15834;DHT22;8017;50.812;4.934;2023-04-03T01:00:54;2.50;99.90
15834;DHT22;8017;50.812;4.934;2023-04-03T01:03:58;2.50;99.90
15834;DHT22;8017;50.812;4.934;2023-04-03T01:07:02;2.40;99.90
15834;DHT22;8017;50.812;4.934;2023-04-03T01:10:08;2.40;99.90
15834;DHT22;8017;50.812;4.934;2023-04-03T01:13:24;2.40;99.90
15834;DHT22;8017;50.812;4.934;2023-04-03T01:16:26;2.40;99.90
15834;DHT22;8017;50.812;4.934;2023-04-03T01:19:31;2.40;99.90
15834;DHT22;8017;50.812;4.934;2023-04-03T01:22:34;2.30;99.90
15834;DHT22;8017;50.812;4.934;2023-04-03T01:25:44;2.30;99.90
15834;DHT22;8017;50.812;4.934;2023-04-03T01:28:48;2.20;99.90
15834;DHT22;8017;50.812;4.934;2023-04-03T01:31:53;2.20;99.90
15834;DHT22;8017;50.812;4.934;2023-04-03T01:34:55;2.20;99.90
15834;DHT22;8017;50.812;4.934;2023-04-03T01:37:57;2.10;99.90
15834;DHT22;8017;50.812;4.934;2023-04-03T01:40:59;2.00;99.90
15834;DHT22;8017;50.812;4.934;2023-04-03T01:44:00;2.10;99.90
15834;DHT22;8017;50.812;4.934;2023-04-03T01:47:05;2.10;99.90
15834;DHT22;8017;50.812;4.934;2023-04-03T01:50:08;2.20;99.90
15834;DHT22;8017;50.812;4.934;2023-04-03T01:53:10;2.20;99.90
15834;DHT22;8017;50.812;4.934;2023-04-03T01:56:12;2.20;99.90
15834;DHT22;8017;50.812;4.934;2023-04-03T01:59:14;2.20;99.90
15834;DHT22;8017;50.812;4.934;2023-04-03T02:02:18;2.20;99.90
15834;DHT22;8017;50.812;4.934;2023-04-03T02:05:21;2.20;99.90
15834;DHT22;8017;50.812;4.934;2023-04-03T02:08:23;2.20;99.90
15834;DHT22;8017;50.812;4.934;2023-04-03T02:11:24;2.20;99.90
15834;DHT22;8017;50.812;4.934;2023-04-03T02:14:26;2.20;99.90
15834;DHT22;8017;50.812;4.934;2023-04-03T02:17:30;2.10;99.90
15834;DHT22;8017;50.812;4.934;2023-04-03T02:20:32;2.00;99.90
15834;DHT22;8017;50.812;4.934;2023-04-03T02:23:34;2.00;99.90
15834;DHT22;8017;50.812;4.934;2023-04-03T02:26:37;1.90;99.90
15834;DHT22;8017;50.812;4.934;2023-04-03T02:29:39;1.90;99.90
15834;DHT22;8017;50.812;4.934;2023-04-03T02:32:42;1.90;99.90
15834;DHT22;8017;50.812;4.934;2023-04-03T02:35:45;1.90;99.90
15834;DHT22;8017;50.812;4.934;2023-04-03T02:38:53;1.90;99.90
15834;DHT22;8017;50.812;4.934;2023-04-03T02:41:55;1.80;99.90
15834;DHT22;8017;50.812;4.934;2023-04-03T02:44:57;1.60;99.90
15834;DHT22;8017;50.812;4.934;2023-04-03T02:48:02;1.60;99.90
15834;DHT22;8017;50.812;4.934;2023-04-03T02:51:04;1.50;99.90
15834;DHT22;8017;50.812;4.934;2023-04-03T02:54:06;1.50;99.90
15834;DHT22;8017;50.812;4.934;2023-04-03T02:57:08;1.50;99.90
15834;DHT22;8017;50.812;4.934;2023-04-03T03:00:11;1.40;99.90
15834;DHT22;8017;50.812;4.934;2023-04-03T03:03:14;1.30;99.90
15834;DHT22;8017;50.812;4.934;2023-04-03T03:06:17;1.40;99.90
15834;DHT22;8017;50.812;4.934;2023-04-03T03:09:19;1.30;99.90
15834;DHT22;8017;50.812;4.934;2023-04-03T03:12:21;1.20;99.90
15834;DHT22;8017;50.812;4.934;2023-04-03T03:15:24;1.10;99.90
15834;DHT22;8017;50.812;4.934;2023-04-03T03:18:28;1.00;99.90
15834;DHT22;8017;50.812;4.934;2023-04-03T03:21:30;1.00;99.90
15834;DHT22;8017;50.812;4.934;2023-04-03T03:24:32;1.10;99.90
15834;DHT22;8017;50.812;4.934;2023-04-03T03:27:34;1.10;99.90
15834;DHT22;8017;50.812;4.934;2023-04-03T03:30:36;1.10;99.90
15834;DHT22;8017;50.812;4.934;2023-04-03T03:33:39;1.20;99.90
15834;DHT22;8017;50.812;4.934;2023-04-03T03:36:41;1.10;99.90
15834;DHT22;8017;50.812;4.934;2023-04-03T03:39:43;1.20;99.90
15834;DHT22;8017;50.812;4.934;2023-04-03T03:42:45;1.20;99.90
15834;DHT22;8017;50.812;4.934;2023-04-03T03:45:50;1.10;99.90
15834;DHT22;8017;50.812;4.934;2023-04-03T03:48:54;1.00;99.90
15834;DHT22;8017;50.812;4.934;2023-04-03T03:51:56;1.00;99.90
15834;DHT22;8017;50.812;4.934;2023-04-03T03:54:57;0.90;99.90
15834;DHT22;8017;50.812;4.934;2023-04-03T03:57:59;1.00;99.90
15834;DHT22;8017;50.812;4.934;2023-04-03T04:01:02;1.00;99.90
15834;DHT22;8017;50.812;4.934;2023-04-03T04:04:07;1.00;99.90
15834;DHT22;8017;50.812;4.934;2023-04-03T04:07:09;1.00;99.90
15834;DHT22;8017;50.812;4.934;2023-04-03T04:10:11;0.90;99.90
15834;DHT22;8017;50.812;4.934;2023-04-03T04:13:14;1.00;99.90
15834;DHT22;8017;50.812;4.934;2023-04-03T04:16:16;1.00;99.90
15834;DHT22;8017;50.812;4.934;2023-04-03T04:19:19;1.00;99.90
15834;DHT22;8017;50.812;4.934;2023-04-03T04:22:21;1.00;99.90
15834;DHT22;8017;50.812;4.934;2023-04-03T04:25:23;0.90;99.90
15834;DHT22;8017;50.812;4.934;2023-04-03T04:28:25;0.90;99.90
15834;DHT22;8017;50.812;4.934;2023-04-03T04:31:27;0.80;99.90
15834;DHT22;8017;50.812;4.934;2023-04-03T04:34:30;0.70;99.90
15834;DHT22;8017;50.812;4.934;2023-04-03T04:37:32;0.60;99.90
15834;DHT22;8017;50.812;4.934;2023-04-03T04:40:34;0.70;99.90
15834;DHT22;8017;50.812;4.934;2023-04-03T04:43:38;0.90;99.90
15834;DHT22;8017;50.812;4.934;2023-04-03T04:46:40;0.80;99.90
15834;DHT22;8017;50.812;4.934;2023-04-03T04:49:43;0.70;99.90
15834;DHT22;8017;50.812;4.934;2023-04-03T04:52:45;0.70;99.90
15834;DHT22;8017;50.812;4.934;2023-04-03T04:55:47;0.70;99.90
15834;DHT22;8017;50.812;4.934;2023-04-03T04:58:50;0.80;99.90
15834;DHT22;8017;50.812;4.934;2023-04-03T05:01:51;0.90;99.90
15834;DHT22;8017;50.812;4.934;2023-04-03T05:04:55;0.80;99.90
15834;DHT22;8017;50.812;4.934;2023-04-03T05:07:57;0.70;99.90
15834;DHT22;8017;50.812;4.934;2023-04-03T05:10:58;0.70;99.90
15834;DHT22;8017;50.812;4.934;2023-04-03T05:14:00;0.90;99.90
15834;DHT22;8017;50.812;4.934;2023-04-03T05:17:02;0.90;99.90
15834;DHT22;8017;50.812;4.934;2023-04-03T05:20:07;0.90;99.90
15834;DHT22;8017;50.812;4.934;2023-04-03T05:23:09;0.80;99.90
15834;DHT22;8017;50.812;4.934;2023-04-03T05:26:11;0.80;99.90
15834;DHT22;8017;50.812;4.934;2023-04-03T05:29:13;0.80;99.90
15834;DHT22;8017;50.812;4.934;2023-04-03T05:32:16;0.90;99.90
15834;DHT22;8017;50.812;4.934;2023-04-03T05:35:19;0.90;99.90
15834;DHT22;8017;50.812;4.934;2023-04-03T05:38:21;0.90;99.90
15834;DHT22;8017;50.812;4.934;2023-04-03T05:41:23;1.00;99.90
15834;DHT22;8017;50.812;4.934;2023-04-03T05:44:26;1.00;99.90
15834;DHT22;8017;50.812;4.934;2023-04-03T05:47:28;1.10;99.90
15834;DHT22;8017;50.812;4.934;2023-04-03T05:50:31;1.10;99.90
15834;DHT22;8017;50.812;4.934;2023-04-03T05:53:35;1.10;99.90
15834;DHT22;8017;50.812;4.934;2023-04-03T05:56:38;1.10;99.90
15834;DHT22;8017;50.812;4.934;2023-04-03T05:59:40;1.30;99.90
15834;DHT22;8017;50.812;4.934;2023-04-03T06:02:43;1.30;99.90
15834;DHT22;8017;50.812;4.934;2023-04-03T06:05:46;1.50;99.90
15834;DHT22;8017;50.812;4.934;2023-04-03T06:08:49;1.50;99.90
15834;DHT22;8017;50.812;4.934;2023-04-03T06:11:51;1.60;99.90
15834;DHT22;8017;50.812;4.934;2023-04-03T06:14:53;1.70;99.90
15834;DHT22;8017;50.812;4.934;2023-04-03T06:17:55;1.80;99.90
15834;DHT22;8017;50.812;4.934;2023-04-03T06:20:58;1.80;99.90
15834;DHT22;8017;50.812;4.934;2023-04-03T06:24:01;1.90;99.90
15834;DHT22;8017;50.812;4.934;2023-04-03T06:27:03;2.00;99.90
15834;DHT22;8017;50.812;4.934;2023-04-03T06:30:07;2.10;99.90
15834;DHT22;8017;50.812;4.934;2023-04-03T06:33:09;2.10;99.90
15834;DHT22;8017;50.812;4.934;2023-04-03T06:36:12;2.20;99.90
15834;DHT22;8017;50.812;4.934;2023-04-03T06:39:16;2.30;99.90
15834;DHT22;8017;50.812;4.934;2023-04-03T06:42:18;2.30;99.90
15834;DHT22;8017;50.812;4.934;2023-04-03T06:45:20;2.30;99.90
15834;DHT22;8017;50.812;4.934;2023-04-03T06:48:22;2.40;99.90
15834;DHT22;8017;50.812;4.934;2023-04-03T06:51:27;2.50;99.90
15834;DHT22;8017;50.812;4.934;2023-04-03T06:54:30;2.60;99.90
15834;DHT22;8017;50.812;4.934;2023-04-03T06:57:31;2.60;99.90
15834;DHT22;8017;50.812;4.934;2023-04-03T07:00:33;2.70;99.90
15834;DHT22;8017;50.812;4.934;2023-04-03T07:03:35;2.80;99.90
15834;DHT22;8017;50.812;4.934;2023-04-03T07:06:39;2.80;99.90
15834;DHT22;8017;50.812;4.934;2023-04-03T07:09:42;2.80;99.90
15834;DHT22;8017;50.812;4.934;2023-04-03T07:12:44;2.80;99.90
15834;DHT22;8017;50.812;4.934;2023-04-03T07:15:46;3.00;99.90
15834;DHT22;8017;50.812;4.934;2023-04-03T07:18:48;3.10;99.90
15834;DHT22;8017;50.812;4.934;2023-04-03T07:21:52;3.10;99.90
15834;DHT22;8017;50.812;4.934;2023-04-03T07:24:54;3.20;99.90
15834;DHT22;8017;50.812;4.934;2023-04-03T07:27:55;3.20;99.90
15834;DHT22;8017;50.812;4.934;2023-04-03T07:31:00;3.30;99.90
15834;DHT22;8017;50.812;4.934;2023-04-03T07:34:03;3.30;99.90
15834;DHT22;8017;50.812;4.934;2023-04-03T07:37:06;3.40;99.90
15834;DHT22;8017;50.812;4.934;2023-04-03T07:40:09;3.50;99.90
15834;DHT22;8017;50.812;4.934;2023-04-03T07:43:11;3.50;99.90
15834;DHT22;8017;50.812;4.934;2023-04-03T07:46:13;3.60;99.90
15834;DHT22;8017;50.812;4.934;2023-04-03T07:49:15;3.70;99.90
15834;DHT22;8017;50.812;4.934;2023-04-03T07:52:19;3.70;99.90
15834;DHT22;8017;50.812;4.934;2023-04-03T07:55:21;3.70;99.90
15834;DHT22;8017;50.812;4.934;2023-04-03T07:58:23;3.80;99.90
15834;DHT22;8017;50.812;4.934;2023-04-03T08:01:26;3.90;99.90
15834;DHT22;8017;50.812;4.934;2023-04-03T08:04:28;4.00;99.90
15834;DHT22;8017;50.812;4.934;2023-04-03T08:07:32;4.10;99.90
15834;DHT22;8017;50.812;4.934;2023-04-03T08:10:34;4.20;99.90
15834;DHT22;8017;50.812;4.934;2023-04-03T08:13:36;4.20;99.90
15834;DHT22;8017;50.812;4.934;2023-04-03T08:16:38;4.20;99.90
15834;DHT22;8017;50.812;4.934;2023-04-03T08:19:40;4.40;99.90
15834;DHT22;8017;50.812;4.934;2023-04-03T08:22:44;4.60;99.90
15834;DHT22;8017;50.812;4.934;2023-04-03T08:25:46;4.60;99.90
15834;DHT22;8017;50.812;4.934;2023-04-03T08:28:48;4.70;99.90
15834;DHT22;8017;50.812;4.934;2023-04-03T08:31:50;4.70;99.90
15834;DHT22;8017;50.812;4.934;2023-04-03T08:34:52;4.80;99.90
15834;DHT22;8017;50.812;4.934;2023-04-03T08:37:56;4.80;99.90
15834;DHT22;8017;50.812;4.934;2023-04-03T08:41:06;4.90;99.90
15834;DHT22;8017;50.812;4.934;2023-04-03T08:44:15;5.00;99.90
15834;DHT22;8017;50.812;4.934;2023-04-03T08:47:23;5.10;99.90
15834;DHT22;8017;50.812;4.934;2023-04-03T08:50:30;5.20;99.90
15834;DHT22;8017;50.812;4.934;2023-04-03T08:53:36;5.20;99.90
15834;DHT22;8017;50.812;4.934;2023-04-03T08:56:41;5.30;99.90
15834;DHT22;8017;50.812;4.934;2023-04-03T08:59:43;5.30;99.90
15834;DHT22;8017;50.812;4.934;2023-04-03T09:02:46;5.40;99.90
15834;DHT22;8017;50.812;4.934;2023-04-03T09:05:53;5.50;99.90
15834;DHT22;8017;50.812;4.934;2023-04-03T09:09:08;5.60;99.90
15834;DHT22;8017;50.812;4.934;2023-04-03T09:12:18;5.70;99.90
15834;DHT22;8017;50.812;4.934;2023-04-03T09:15:24;5.70;99.90
15834;DHT22;8017;50.812;4.934;2023-04-03T09:18:30;5.80;99.90
15834;DHT22;8017;50.812;4.934;2023-04-03T09:21:36;5.90;99.90
15834;DHT22;8017;50.812;4.934;2023-04-03T09:24:40;5.90;99.90
15834;DHT22;8017;50.812;4.934;2023-04-03T09:27:43;6.00;99.90
15834;DHT22;8017;50.812;4.934;2023-04-03T09:30:45;6.10;99.90
15834;DHT22;8017;50.812;4.934;2023-04-03T09:33:49;6.10;99.90
15834;DHT22;8017;50.812;4.934;2023-04-03T09:36:53;6.10;99.90
15834;DHT22;8017;50.812;4.934;2023-04-03T09:39:57;6.20;99.90
15834;DHT22;8017;50.812;4.934;2023-04-03T09:43:01;6.20;99.90
15834;DHT22;8017;50.812;4.934;2023-04-03T09:46:29;6.30;99.90
15834;DHT22;8017;50.812;4.934;2023-04-03T09:49:31;6.30;99.90
15834;DHT22;8017;50.812;4.934;2023-04-03T09:52:33;6.30;99.90
15834;DHT22;8017;50.812;4.934;2023-04-03T09:55:43;6.40;99.90
15834;DHT22;8017;50.812;4.934;2023-04-03T09:58:47;6.50;99.90
15834;DHT22;8017;50.812;4.934;2023-04-03T10:01:58;6.60;99.90
15834;DHT22;8017;50.812;4.934;2023-04-03T10:05:00;6.70;99.90
15834;DHT22;8017;50.812;4.934;2023-04-03T10:08:20;6.70;99.90
15834;DHT22;8017;50.812;4.934;2023-04-03T10:11:25;6.80;99.90
15834;DHT22;8017;50.812;4.934;2023-04-03T10:14:27;7.00;99.90
15834;DHT22;8017;50.812;4.934;2023-04-03T10:17:41;7.00;99.90
15834;DHT22;8017;50.812;4.934;2023-04-03T10:20:49;6.90;99.90
15834;DHT22;8017;50.812;4.934;2023-04-03T10:23:57;7.00;99.90
15834;DHT22;8017;50.812;4.934;2023-04-03T10:27:07;7.20;99.90
15834;DHT22;8017;50.812;4.934;2023-04-03T10:30:21;7.20;99.90
15834;DHT22;8017;50.812;4.934;2023-04-03T10:33:41;7.30;99.90
15834;DHT22;8017;50.812;4.934;2023-04-03T10:36:51;7.30;99.90
15834;DHT22;8017;50.812;4.934;2023-04-03T10:39:56;7.30;99.90
15834;DHT22;8017;50.812;4.934;2023-04-03T10:43:08;7.30;99.90
15834;DHT22;8017;50.812;4.934;2023-04-03T10:46:14;7.30;99.90
15834;DHT22;8017;50.812;4.934;2023-04-03T10:49:29;7.40;99.90
15834;DHT22;8017;50.812;4.934;2023-04-03T10:52:39;7.50;99.90
15834;DHT22;8017;50.812;4.934;2023-04-03T10:55:50;7.60;99.90
15834;DHT22;8017;50.812;4.934;2023-04-03T10:59:01;7.60;99.90
15834;DHT22;8017;50.812;4.934;2023-04-03T11:02:06;7.70;99.90
15834;DHT22;8017;50.812;4.934;2023-04-03T11:05:17;7.80;99.90
15834;DHT22;8017;50.812;4.934;2023-04-03T11:08:26;7.90;99.90
15834;DHT22;8017;50.812;4.934;2023-04-03T11:11:31;7.90;99.90
15834;DHT22;8017;50.812;4.934;2023-04-03T11:14:38;8.00;99.90
15834;DHT22;8017;50.812;4.934;2023-04-03T11:17:45;7.90;99.90
15834;DHT22;8017;50.812;4.934;2023-04-03T11:20:57;7.90;99.90
15834;DHT22;8017;50.812;4.934;2023-04-03T11:24:03;7.90;99.90
15834;DHT22;8017;50.812;4.934;2023-04-03T11:27:13;7.90;99.90
15834;DHT22;8017;50.812;4.934;2023-04-03T11:30:21;8.00;99.90
15834;DHT22;8017;50.812;4.934;2023-04-03T11:33:32;8.10;99.90
15834;DHT22;8017;50.812;4.934;2023-04-03T11:36:42;8.20;99.90
15834;DHT22;8017;50.812;4.934;2023-04-03T11:39:51;8.20;99.90
15834;DHT22;8017;50.812;4.934;2023-04-03T11:43:02;8.40;99.90
15834;DHT22;8017;50.812;4.934;2023-04-03T11:46:06;8.20;99.90
15834;DHT22;8017;50.812;4.934;2023-04-03T11:52:59;8.20;99.90
15834;DHT22;8017;50.812;4.934;2023-04-03T11:56:29;8.30;99.90
15834;DHT22;8017;50.812;4.934;2023-04-03T11:59:37;8.30;99.90
15834;DHT22;8017;50.812;4.934;2023-04-03T12:02:40;8.40;99.90
15834;DHT22;8017;50.812;4.934;2023-04-03T12:05:42;8.40;99.90
15834;DHT22;8017;50.812;4.934;2023-04-03T12:08:46;8.30;99.90
15834;DHT22;8017;50.812;4.934;2023-04-03T12:11:49;8.40;99.90
15834;DHT22;8017;50.812;4.934;2023-04-03T12:14:51;8.40;99.90
15834;DHT22;8017;50.812;4.934;2023-04-03T12:17:55;8.50;99.90
15834;DHT22;8017;50.812;4.934;2023-04-03T12:20:58;8.70;99.90
15834;DHT22;8017;50.812;4.934;2023-04-03T12:24:13;8.70;99.90
15834;DHT22;8017;50.812;4.934;2023-04-03T12:27:38;8.60;99.90
15834;DHT22;8017;50.812;4.934;2023-04-03T12:30:43;8.70;99.90
15834;DHT22;8017;50.812;4.934;2023-04-03T12:33:59;8.70;99.90
15834;DHT22;8017;50.812;4.934;2023-04-03T12:37:08;8.70;99.90
15834;DHT22;8017;50.812;4.934;2023-04-03T12:40:20;8.80;99.90
15834;DHT22;8017;50.812;4.934;2023-04-03T12:43:39;8.70;99.90
15834;DHT22;8017;50.812;4.934;2023-04-03T12:46:46;8.60;99.90
15834;DHT22;8017;50.812;4.934;2023-04-03T12:49:50;8.90;99.90
15834;DHT22;8017;50.812;4.934;2023-04-03T12:53:00;9.00;99.90
15834;DHT22;8017;50.812;4.934;2023-04-03T12:56:21;9.00;99.90
15834;DHT22;8017;50.812;4.934;2023-04-03T12:59:25;8.80;99.90
15834;DHT22;8017;50.812;4.934;2023-04-03T13:02:28;8.70;99.90
15834;DHT22;8017;50.812;4.934;2023-04-03T13:05:33;8.70;99.90
15834;DHT22;8017;50.812;4.934;2023-04-03T13:08:36;8.70;99.90
15834;DHT22;8017;50.812;4.934;2023-04-03T13:11:40;8.80;99.90
15834;DHT22;8017;50.812;4.934;2023-04-03T13:14:51;8.80;99.90
15834;DHT22;8017;50.812;4.934;2023-04-03T13:17:54;8.90;99.90
15834;DHT22;8017;50.812;4.934;2023-04-03T13:21:01;8.90;99.90
15834;DHT22;8017;50.812;4.934;2023-04-03T13:24:05;8.90;99.90
15834;DHT22;8017;50.812;4.934;2023-04-03T13:27:07;9.00;99.90
15834;DHT22;8017;50.812;4.934;2023-04-03T13:30:25;9.20;99.90
15834;DHT22;8017;50.812;4.934;2023-04-03T13:33:29;9.20;99.90
15834;DHT22;8017;50.812;4.934;2023-04-03T13:36:36;9.20;99.90
15834;DHT22;8017;50.812;4.934;2023-04-03T13:39:39;9.30;99.90
15834;DHT22;8017;50.812;4.934;2023-04-03T13:42:42;9.20;99.90
15834;DHT22;8017;50.812;4.934;2023-04-03T13:45:56;9.00;99.90
15834;DHT22;8017;50.812;4.934;2023-04-03T13:49:18;9.00;99.90
15834;DHT22;8017;50.812;4.934;2023-04-03T13:52:27;9.20;99.90
15834;DHT22;8017;50.812;4.934;2023-04-03T13:55:32;9.30;99.90
15834;DHT22;8017;50.812;4.934;2023-04-03T13:58:36;9.30;99.90
15834;DHT22;8017;50.812;4.934;2023-04-03T14:01:44;9.40;99.90
15834;DHT22;8017;50.812;4.934;2023-04-03T14:04:53;9.30;99.90
15834;DHT22;8017;50.812;4.934;2023-04-03T14:07:59;9.20;99.90
15834;DHT22;8017;50.812;4.934;2023-04-03T14:11:02;9.30;99.90
15834;DHT22;8017;50.812;4.934;2023-04-03T14:14:12;9.20;99.90
15834;DHT22;8017;50.812;4.934;2023-04-03T14:17:17;9.30;99.90
15834;DHT22;8017;50.812;4.934;2023-04-03T14:20:22;9.40;99.90
15834;DHT22;8017;50.812;4.934;2023-04-03T14:23:25;9.40;99.90
15834;DHT22;8017;50.812;4.934;2023-04-03T14:26:28;9.50;99.90
15834;DHT22;8017;50.812;4.934;2023-04-03T14:29:30;9.50;99.90
15834;DHT22;8017;50.812;4.934;2023-04-03T14:32:33;9.50;99.90
15834;DHT22;8017;50.812;4.934;2023-04-03T14:35:35;9.50;99.90
15834;DHT22;8017;50.812;4.934;2023-04-03T14:38:40;9.60;99.90
15834;DHT22;8017;50.812;4.934;2023-04-03T14:41:43;9.70;99.90
15834;DHT22;8017;50.812;4.934;2023-04-03T14:44:45;9.70;99.90
15834;DHT22;8017;50.812;4.934;2023-04-03T14:47:49;9.70;99.90
15834;DHT22;8017;50.812;4.934;2023-04-03T14:50:52;9.70;99.90
15834;DHT22;8017;50.812;4.934;2023-04-03T14:53:56;9.70;99.90
15834;DHT22;8017;50.812;4.934;2023-04-03T14:56:59;9.80;99.90
15834;DHT22;8017;50.812;4.934;2023-04-03T15:00:03;9.70;99.90
15834;DHT22;8017;50.812;4.934;2023-04-03T15:03:05;9.80;99.90
15834;DHT22;8017;50.812;4.934;2023-04-03T15:06:09;9.80;99.90
15834;DHT22;8017;50.812;4.934;2023-04-03T15:09:19;9.80;99.90
15834;DHT22;8017;50.812;4.934;2023-04-03T15:12:23;9.80;99.90
15834;DHT22;8017;50.812;4.934;2023-04-03T15:15:28;9.70;99.90
15834;DHT22;8017;50.812;4.934;2023-04-03T15:18:35;9.80;99.90
15834;DHT22;8017;50.812;4.934;2023-04-03T15:21:39;9.80;99.90
15834;DHT22;8017;50.812;4.934;2023-04-03T15:24:43;9.80;99.90
15834;DHT22;8017;50.812;4.934;2023-04-03T15:27:45;9.80;99.90
15834;DHT22;8017;50.812;4.934;2023-04-03T15:30:47;9.80;99.90
15834;DHT22;8017;50.812;4.934;2023-04-03T15:33:49;9.70;99.90
15834;DHT22;8017;50.812;4.934;2023-04-03T15:36:51;9.80;99.90
15834;DHT22;8017;50.812;4.934;2023-04-03T15:39:54;9.80;99.90
15834;DHT22;8017;50.812;4.934;2023-04-03T15:42:56;9.80;99.90
15834;DHT22;8017;50.812;4.934;2023-04-03T15:45:58;9.90;99.90
15834;DHT22;8017;50.812;4.934;2023-04-03T15:49:01;10.00;99.90
15834;DHT22;8017;50.812;4.934;2023-04-03T15:52:03;10.10;99.90
15834;DHT22;8017;50.812;4.934;2023-04-03T15:55:07;10.20;99.90
15834;DHT22;8017;50.812;4.934;2023-04-03T15:58:10;10.20;99.90
15834;DHT22;8017;50.812;4.934;2023-04-03T16:01:12;10.10;99.90
15834;DHT22;8017;50.812;4.934;2023-04-03T16:04:15;10.10;99.90
15834;DHT22;8017;50.812;4.934;2023-04-03T16:07:17;10.20;99.90
15834;DHT22;8017;50.812;4.934;2023-04-03T16:10:21;10.10;99.90
15834;DHT22;8017;50.812;4.934;2023-04-03T16:13:23;10.10;99.90
15834;DHT22;8017;50.812;4.934;2023-04-03T16:16:25;10.20;99.90
15834;DHT22;8017;50.812;4.934;2023-04-03T16:19:28;10.70;99.90
15834;DHT22;8017;50.812;4.934;2023-04-03T16:22:31;10.70;99.90
15834;DHT22;8017;50.812;4.934;2023-04-03T16:25:35;11.00;99.90
15834;DHT22;8017;50.812;4.934;2023-04-03T16:28:38;11.40;99.90
15834;DHT22;8017;50.812;4.934;2023-04-03T16:31:39;11.70;99.90
15834;DHT22;8017;50.812;4.934;2023-04-03T16:34:41;11.80;99.90
15834;DHT22;8017;50.812;4.934;2023-04-03T16:37:43;12.00;99.90
15834;DHT22;8017;50.812;4.934;2023-04-03T16:40:47;12.20;99.90
15834;DHT22;8017;50.812;4.934;2023-04-03T16:43:49;12.50;99.90
15834;DHT22;8017;50.812;4.934;2023-04-03T16:46:51;12.40;99.90
15834;DHT22;8017;50.812;4.934;2023-04-03T16:49:53;12.30;99.90
15834;DHT22;8017;50.812;4.934;2023-04-03T16:52:55;12.20;99.90
15834;DHT22;8017;50.812;4.934;2023-04-03T16:55:58;12.30;99.90
15834;DHT22;8017;50.812;4.934;2023-04-03T16:59:00;12.40;99.90
15834;DHT22;8017;50.812;4.934;2023-04-03T17:02:02;12.40;99.90
15834;DHT22;8017;50.812;4.934;2023-04-03T17:05:05;12.10;99.90
15834;DHT22;8017;50.812;4.934;2023-04-03T17:08:07;12.00;99.90
15834;DHT22;8017;50.812;4.934;2023-04-03T17:11:10;11.90;99.90
15834;DHT22;8017;50.812;4.934;2023-04-03T17:14:12;11.80;99.90
15834;DHT22;8017;50.812;4.934;2023-04-03T17:17:14;11.80;99.90
15834;DHT22;8017;50.812;4.934;2023-04-03T17:20:17;11.70;99.90
15834;DHT22;8017;50.812;4.934;2023-04-03T17:23:19;11.60;99.90
15834;DHT22;8017;50.812;4.934;2023-04-03T17:26:22;11.40;99.90
15834;DHT22;8017;50.812;4.934;2023-04-03T17:29:24;11.40;99.90
15834;DHT22;8017;50.812;4.934;2023-04-03T17:32:26;11.40;99.90
15834;DHT22;8017;50.812;4.934;2023-04-03T17:35:29;11.20;99.90
15834;DHT22;8017;50.812;4.934;2023-04-03T17:38:31;11.20;99.90
15834;DHT22;8017;50.812;4.934;2023-04-03T17:41:35;10.80;99.90
15834;DHT22;8017;50.812;4.934;2023-04-03T17:44:37;10.30;99.90
15834;DHT22;8017;50.812;4.934;2023-04-03T17:47:39;9.90;99.90
15834;DHT22;8017;50.812;4.934;2023-04-03T17:50:41;9.40;99.90
15834;DHT22;8017;50.812;4.934;2023-04-03T17:53:43;9.00;99.90
15834;DHT22;8017;50.812;4.934;2023-04-03T17:56:46;8.70;99.90
15834;DHT22;8017;50.812;4.934;2023-04-03T17:59:54;8.50;99.90
15834;DHT22;8017;50.812;4.934;2023-04-03T18:03:01;8.30;99.90
15834;DHT22;8017;50.812;4.934;2023-04-03T18:06:04;8.20;99.90
15834;DHT22;8017;50.812;4.934;2023-04-03T18:09:13;8.10;99.90
15834;DHT22;8017;50.812;4.934;2023-04-03T18:12:27;7.90;99.90
15834;DHT22;8017;50.812;4.934;2023-04-03T18:15:41;7.70;99.90
15834;DHT22;8017;50.812;4.934;2023-04-03T18:18:52;7.60;99.90
15834;DHT22;8017;50.812;4.934;2023-04-03T18:22:02;7.50;99.90
15834;DHT22;8017;50.812;4.934;2023-04-03T18:25:12;7.30;99.90
15834;DHT22;8017;50.812;4.934;2023-04-03T18:28:25;7.20;99.90
15834;DHT22;8017;50.812;4.934;2023-04-03T18:31:36;7.10;99.90
15834;DHT22;8017;50.812;4.934;2023-04-03T18:34:47;7.10;99.90
15834;DHT22;8017;50.812;4.934;2023-04-03T18:37:52;6.90;99.90
15834;DHT22;8017;50.812;4.934;2023-04-03T18:40:58;6.90;99.90
15834;DHT22;8017;50.812;4.934;2023-04-03T18:44:14;6.80;99.90
15834;DHT22;8017;50.812;4.934;2023-04-03T18:47:24;6.70;99.90
15834;DHT22;8017;50.812;4.934;2023-04-03T18:50:31;6.60;99.90
15834;DHT22;8017;50.812;4.934;2023-04-03T18:53:39;6.50;99.90
15834;DHT22;8017;50.812;4.934;2023-04-03T18:56:46;6.40;99.90
15834;DHT22;8017;50.812;4.934;2023-04-03T18:59:54;6.40;99.90
15834;DHT22;8017;50.812;4.934;2023-04-03T19:02:55;6.30;99.90
15834;DHT22;8017;50.812;4.934;2023-04-03T19:06:01;6.30;99.90
15834;DHT22;8017;50.812;4.934;2023-04-03T19:09:11;6.20;99.90
15834;DHT22;8017;50.812;4.934;2023-04-03T19:12:17;6.20;99.90
15834;DHT22;8017;50.812;4.934;2023-04-03T19:15:27;6.10;99.90
15834;DHT22;8017;50.812;4.934;2023-04-03T19:18:33;6.00;99.90
15834;DHT22;8017;50.812;4.934;2023-04-03T19:21:35;6.00;99.90
15834;DHT22;8017;50.812;4.934;2023-04-03T19:24:43;6.00;99.90
15834;DHT22;8017;50.812;4.934;2023-04-03T19:27:53;6.00;99.90
15834;DHT22;8017;50.812;4.934;2023-04-03T19:31:12;5.90;99.90
15834;DHT22;8017;50.812;4.934;2023-04-03T19:34:21;5.90;99.90
15834;DHT22;8017;50.812;4.934;2023-04-03T19:37:30;5.80;99.90
15834;DHT22;8017;50.812;4.934;2023-04-03T19:40:39;5.80;99.90
15834;DHT22;8017;50.812;4.934;2023-04-03T19:43:50;5.80;99.90
15834;DHT22;8017;50.812;4.934;2023-04-03T19:46:58;5.70;99.90
15834;DHT22;8017;50.812;4.934;2023-04-03T19:50:02;5.60;99.90
15834;DHT22;8017;50.812;4.934;2023-04-03T19:53:06;5.50;99.90
15834;DHT22;8017;50.812;4.934;2023-04-03T19:56:22;5.40;99.90
15834;DHT22;8017;50.812;4.934;2023-04-03T19:59:30;5.50;99.90
15834;DHT22;8017;50.812;4.934;2023-04-03T20:02:43;5.40;99.90
15834;DHT22;8017;50.812;4.934;2023-04-03T20:05:48;5.40;99.90
15834;DHT22;8017;50.812;4.934;2023-04-03T20:08:50;5.30;99.90